sensor_id;sensor_type;location;lat;lon;timestamp;P1;durP1;ratioP1;P2;durP2;ratioP2
10126;SDS011;13080;42.608;23.362;2023-07-20T00:02:02;8.75;;;3.03;;
10126;SDS011;13080;42.608;23.362;2023-07-20T00:04:30;11.10;;;2.50;;
10126;SDS011;13080;42.608;23.362;2023-07-20T00:06:59;5.50;;;2.75;;
10126;SDS011;13080;42.608;23.362;2023-07-20T00:09:26;8.70;;;2.42;;
10126;SDS011;13080;42.608;23.362;2023-07-20T00:11:53;6.90;;;2.28;;
10126;SDS011;13080;42.608;23.362;2023-07-20T00:14:20;6.32;;;2.53;;
10126;SDS011;13080;42.608;23.362;2023-07-20T00:16:47;6.22;;;2.42;;
10126;SDS011;13080;42.608;23.362;2023-07-20T00:19:21;5.63;;;2.38;;
10126;SDS011;13080;42.608;23.362;2023-07-20T00:21:48;9.43;;;3.10;;
10126;SDS011;13080;42.608;23.362;2023-07-20T00:24:16;5.85;;;2.55;;
10126;SDS011;13080;42.608;23.362;2023-07-20T00:26:43;9.85;;;3.10;;
10126;SDS011;13080;42.608;23.362;2023-07-20T00:29:10;5.30;;;2.70;;
10126;SDS011;13080;42.608;23.362;2023-07-20T00:31:37;6.03;;;3.15;;
10126;SDS011;13080;42.608;23.362;2023-07-20T00:34:04;6.50;;;2.70;;
10126;SDS011;13080;42.608;23.362;2023-07-20T00:36:31;7.03;;;2.70;;
10126;SDS011;13080;42.608;23.362;2023-07-20T00:38:58;9.30;;;4.07;;
10126;SDS011;13080;42.608;23.362;2023-07-20T00:41:26;5.43;;;3.03;;
10126;SDS011;13080;42.608;23.362;2023-07-20T00:43:54;7.97;;;3.42;;
10126;SDS011;13080;42.608;23.362;2023-07-20T00:46:21;7.03;;;2.55;;
10126;SDS011;13080;42.608;23.362;2023-07-20T00:48:49;9.30;;;3.13;;
10126;SDS011;13080;42.608;23.362;2023-07-20T00:51:16;5.25;;;3.00;;
10126;SDS011;13080;42.608;23.362;2023-07-20T00:53:43;6.88;;;4.00;;
10126;SDS011;13080;42.608;23.362;2023-07-20T00:56:09;5.45;;;3.33;;
10126;SDS011;13080;42.608;23.362;2023-07-20T00:58:38;10.57;;;2.88;;
10126;SDS011;13080;42.608;23.362;2023-07-20T01:01:05;7.30;;;2.90;;
10126;SDS011;13080;42.608;23.362;2023-07-20T01:03:32;10.32;;;2.83;;
10126;SDS011;13080;42.608;23.362;2023-07-20T01:06:00;7.00;;;3.35;;
10126;SDS011;13080;42.608;23.362;2023-07-20T01:08:37;8.98;;;3.10;;
10126;SDS011;13080;42.608;23.362;2023-07-20T01:11:10;7.00;;;3.72;;
10126;SDS011;13080;42.608;23.362;2023-07-20T01:13:44;4.72;;;2.88;;
10126;SDS011;13080;42.608;23.362;2023-07-20T01:16:11;5.40;;;3.28;;
10126;SDS011;13080;42.608;23.362;2023-07-20T01:18:38;5.38;;;2.90;;
10126;SDS011;13080;42.608;23.362;2023-07-20T01:21:06;6.60;;;2.40;;
10126;SDS011;13080;42.608;23.362;2023-07-20T01:26:38;5.63;;;2.55;;
10126;SDS011;13080;42.608;23.362;2023-07-20T01:29:40;11.35;;;3.05;;
10126;SDS011;13080;42.608;23.362;2023-07-20T01:32:19;7.18;;;2.53;;
10126;SDS011;13080;42.608;23.362;2023-07-20T01:34:51;5.50;;;2.70;;
10126;SDS011;13080;42.608;23.362;2023-07-20T01:37:20;7.43;;;2.90;;
10126;SDS011;13080;42.608;23.362;2023-07-20T01:39:51;7.85;;;2.75;;
10126;SDS011;13080;42.608;23.362;2023-07-20T01:42:21;6.45;;;2.85;;
10126;SDS011;13080;42.608;23.362;2023-07-20T01:44:48;6.50;;;2.70;;
10126;SDS011;13080;42.608;23.362;2023-07-20T01:47:16;6.70;;;2.60;;
10126;SDS011;13080;42.608;23.362;2023-07-20T01:49:44;11.30;;;2.63;;
10126;SDS011;13080;42.608;23.362;2023-07-20T01:52:11;7.85;;;3.58;;
10126;SDS011;13080;42.608;23.362;2023-07-20T01:54:38;7.45;;;3.17;;
10126;SDS011;13080;42.608;23.362;2023-07-20T01:57:05;6.03;;;2.88;;
10126;SDS011;13080;42.608;23.362;2023-07-20T01:59:31;4.38;;;2.65;;
10126;SDS011;13080;42.608;23.362;2023-07-20T02:01:58;8.60;;;2.63;;
10126;SDS011;13080;42.608;23.362;2023-07-20T02:04:25;6.45;;;3.38;;
10126;SDS011;13080;42.608;23.362;2023-07-20T02:06:53;4.95;;;2.53;;
10126;SDS011;13080;42.608;23.362;2023-07-20T02:09:20;6.30;;;2.70;;
10126;SDS011;13080;42.608;23.362;2023-07-20T02:11:46;6.30;;;3.17;;
10126;SDS011;13080;42.608;23.362;2023-07-20T02:14:13;8.77;;;2.67;;
10126;SDS011;13080;42.608;23.362;2023-07-20T02:16:40;6.85;;;2.63;;
10126;SDS011;13080;42.608;23.362;2023-07-20T02:19:06;9.50;;;2.47;;
10126;SDS011;13080;42.608;23.362;2023-07-20T02:21:33;6.90;;;3.60;;
10126;SDS011;13080;42.608;23.362;2023-07-20T02:24:01;7.97;;;3.42;;
10126;SDS011;13080;42.608;23.362;2023-07-20T02:26:28;8.50;;;3.35;;
10126;SDS011;13080;42.608;23.362;2023-07-20T02:28:56;7.07;;;2.88;;
10126;SDS011;13080;42.608;23.362;2023-07-20T02:31:22;9.85;;;2.72;;
10126;SDS011;13080;42.608;23.362;2023-07-20T02:33:49;10.77;;;2.97;;
10126;SDS011;13080;42.608;23.362;2023-07-20T02:36:16;6.25;;;2.75;;
10126;SDS011;13080;42.608;23.362;2023-07-20T02:38:42;9.05;;;3.38;;
10126;SDS011;13080;42.608;23.362;2023-07-20T02:41:11;10.48;;;3.67;;
10126;SDS011;13080;42.608;23.362;2023-07-20T02:43:38;5.72;;;2.92;;
10126;SDS011;13080;42.608;23.362;2023-07-20T02:46:05;8.75;;;2.80;;
10126;SDS011;13080;42.608;23.362;2023-07-20T02:48:31;5.25;;;2.45;;
10126;SDS011;13080;42.608;23.362;2023-07-20T02:50:58;10.48;;;3.20;;
10126;SDS011;13080;42.608;23.362;2023-07-20T02:53:25;5.38;;;3.13;;
10126;SDS011;13080;42.608;23.362;2023-07-20T02:55:52;8.82;;;2.92;;
10126;SDS011;13080;42.608;23.362;2023-07-20T02:58:20;5.43;;;2.50;;
10126;SDS011;13080;42.608;23.362;2023-07-20T03:00:46;4.65;;;2.97;;
10126;SDS011;13080;42.608;23.362;2023-07-20T03:03:13;7.55;;;2.85;;
10126;SDS011;13080;42.608;23.362;2023-07-20T03:05:40;7.47;;;3.15;;
10126;SDS011;13080;42.608;23.362;2023-07-20T03:08:07;6.65;;;2.85;;
10126;SDS011;13080;42.608;23.362;2023-07-20T03:10:38;7.30;;;2.92;;
10126;SDS011;13080;42.608;23.362;2023-07-20T03:13:06;6.85;;;3.13;;
10126;SDS011;13080;42.608;23.362;2023-07-20T03:15:34;8.15;;;2.65;;
10126;SDS011;13080;42.608;23.362;2023-07-20T03:18:01;10.38;;;3.42;;
10126;SDS011;13080;42.608;23.362;2023-07-20T03:20:28;5.57;;;2.35;;
10126;SDS011;13080;42.608;23.362;2023-07-20T03:22:54;6.72;;;3.40;;
10126;SDS011;13080;42.608;23.362;2023-07-20T03:25:21;5.20;;;2.83;;
10126;SDS011;13080;42.608;23.362;2023-07-20T03:27:48;6.60;;;2.50;;
10126;SDS011;13080;42.608;23.362;2023-07-20T03:30:15;12.15;;;3.30;;
10126;SDS011;13080;42.608;23.362;2023-07-20T03:32:43;9.30;;;3.10;;
10126;SDS011;13080;42.608;23.362;2023-07-20T03:35:10;3.85;;;2.70;;
10126;SDS011;13080;42.608;23.362;2023-07-20T03:37:36;5.68;;;2.90;;
10126;SDS011;13080;42.608;23.362;2023-07-20T03:40:03;9.13;;;3.17;;
10126;SDS011;13080;42.608;23.362;2023-07-20T03:42:32;5.07;;;2.80;;
10126;SDS011;13080;42.608;23.362;2023-07-20T03:44:59;7.68;;;2.78;;
10126;SDS011;13080;42.608;23.362;2023-07-20T03:47:26;9.55;;;3.15;;
10126;SDS011;13080;42.608;23.362;2023-07-20T03:49:54;8.15;;;3.25;;
10126;SDS011;13080;42.608;23.362;2023-07-20T03:52:21;5.57;;;2.80;;
10126;SDS011;13080;42.608;23.362;2023-07-20T03:54:48;8.90;;;3.00;;
10126;SDS011;13080;42.608;23.362;2023-07-20T03:57:16;8.77;;;3.30;;
10126;SDS011;13080;42.608;23.362;2023-07-20T03:59:44;7.40;;;2.80;;
10126;SDS011;13080;42.608;23.362;2023-07-20T04:02:11;5.57;;;2.70;;
10126;SDS011;13080;42.608;23.362;2023-07-20T04:04:38;7.53;;;2.97;;
10126;SDS011;13080;42.608;23.362;2023-07-20T04:07:06;6.00;;;3.50;;
10126;SDS011;13080;42.608;23.362;2023-07-20T04:09:33;8.80;;;3.28;;
10126;SDS011;13080;42.608;23.362;2023-07-20T04:12:00;8.95;;;3.20;;
10126;SDS011;13080;42.608;23.362;2023-07-20T04:14:26;8.45;;;3.63;;
10126;SDS011;13080;42.608;23.362;2023-07-20T04:16:53;4.72;;;2.58;;
10126;SDS011;13080;42.608;23.362;2023-07-20T04:19:20;10.25;;;2.90;;
10126;SDS011;13080;42.608;23.362;2023-07-20T04:21:47;6.65;;;3.20;;
10126;SDS011;13080;42.608;23.362;2023-07-20T04:24:15;9.43;;;3.25;;
10126;SDS011;13080;42.608;23.362;2023-07-20T04:26:41;8.50;;;3.15;;
10126;SDS011;13080;42.608;23.362;2023-07-20T04:29:08;6.85;;;3.00;;
10126;SDS011;13080;42.608;23.362;2023-07-20T04:31:35;6.03;;;3.00;;
10126;SDS011;13080;42.608;23.362;2023-07-20T04:34:02;8.80;;;2.85;;
10126;SDS011;13080;42.608;23.362;2023-07-20T04:36:29;9.70;;;3.03;;
10126;SDS011;13080;42.608;23.362;2023-07-20T04:38:55;6.07;;;2.78;;
10126;SDS011;13080;42.608;23.362;2023-07-20T04:41:24;6.05;;;2.70;;
10126;SDS011;13080;42.608;23.362;2023-07-20T04:43:51;6.57;;;2.40;;
10126;SDS011;13080;42.608;23.362;2023-07-20T04:46:18;8.38;;;2.95;;
10126;SDS011;13080;42.608;23.362;2023-07-20T04:48:46;5.78;;;3.33;;
10126;SDS011;13080;42.608;23.362;2023-07-20T04:51:13;9.57;;;3.13;;
10126;SDS011;13080;42.608;23.362;2023-07-20T04:53:40;10.75;;;3.55;;
10126;SDS011;13080;42.608;23.362;2023-07-20T04:56:06;8.45;;;3.22;;
10126;SDS011;13080;42.608;23.362;2023-07-20T04:58:37;11.75;;;2.90;;
10126;SDS011;13080;42.608;23.362;2023-07-20T05:01:03;6.38;;;2.88;;
10126;SDS011;13080;42.608;23.362;2023-07-20T05:03:30;8.05;;;2.83;;
10126;SDS011;13080;42.608;23.362;2023-07-20T05:05:57;12.02;;;3.00;;
10126;SDS011;13080;42.608;23.362;2023-07-20T05:08:24;13.32;;;3.08;;
10126;SDS011;13080;42.608;23.362;2023-07-20T05:10:51;9.07;;;3.00;;
10126;SDS011;13080;42.608;23.362;2023-07-20T05:13:17;7.00;;;2.45;;
10126;SDS011;13080;42.608;23.362;2023-07-20T05:15:45;9.90;;;3.13;;
10126;SDS011;13080;42.608;23.362;2023-07-20T05:18:12;7.13;;;2.80;;
10126;SDS011;13080;42.608;23.362;2023-07-20T05:20:45;11.18;;;3.20;;
10126;SDS011;13080;42.608;23.362;2023-07-20T05:23:12;16.05;;;4.20;;
10126;SDS011;13080;42.608;23.362;2023-07-20T05:25:39;16.40;;;3.22;;
10126;SDS011;13080;42.608;23.362;2023-07-20T05:28:05;16.48;;;3.70;;
10126;SDS011;13080;42.608;23.362;2023-07-20T05:30:32;8.73;;;3.08;;
10126;SDS011;13080;42.608;23.362;2023-07-20T05:33:00;8.57;;;3.63;;
10126;SDS011;13080;42.608;23.362;2023-07-20T05:35:27;9.85;;;3.53;;
10126;SDS011;13080;42.608;23.362;2023-07-20T05:37:54;13.32;;;3.55;;
10126;SDS011;13080;42.608;23.362;2023-07-20T05:40:21;7.97;;;3.50;;
10126;SDS011;13080;42.608;23.362;2023-07-20T05:42:48;7.80;;;3.75;;
10126;SDS011;13080;42.608;23.362;2023-07-20T05:45:17;12.23;;;4.15;;
10126;SDS011;13080;42.608;23.362;2023-07-20T05:47:44;8.88;;;3.72;;
10126;SDS011;13080;42.608;23.362;2023-07-20T05:50:12;7.28;;;3.95;;
10126;SDS011;13080;42.608;23.362;2023-07-20T05:52:39;8.00;;;3.88;;
10126;SDS011;13080;42.608;23.362;2023-07-20T05:55:06;12.65;;;4.05;;
10126;SDS011;13080;42.608;23.362;2023-07-20T05:57:34;8.68;;;3.75;;
10126;SDS011;13080;42.608;23.362;2023-07-20T06:00:05;8.55;;;4.00;;
10126;SDS011;13080;42.608;23.362;2023-07-20T06:02:33;8.82;;;4.47;;
10126;SDS011;13080;42.608;23.362;2023-07-20T06:05:00;7.55;;;3.35;;
10126;SDS011;13080;42.608;23.362;2023-07-20T06:07:28;7.93;;;3.97;;
10126;SDS011;13080;42.608;23.362;2023-07-20T06:09:56;7.80;;;4.00;;
10126;SDS011;13080;42.608;23.362;2023-07-20T06:12:23;6.82;;;3.70;;
10126;SDS011;13080;42.608;23.362;2023-07-20T06:17:50;8.75;;;3.92;;
10126;SDS011;13080;42.608;23.362;2023-07-20T06:20:17;8.57;;;4.38;;
10126;SDS011;13080;42.608;23.362;2023-07-20T06:22:45;9.57;;;4.13;;
10126;SDS011;13080;42.608;23.362;2023-07-20T06:25:13;10.55;;;3.80;;
10126;SDS011;13080;42.608;23.362;2023-07-20T06:27:39;13.65;;;3.20;;
10126;SDS011;13080;42.608;23.362;2023-07-20T06:30:06;9.98;;;3.53;;
10126;SDS011;13080;42.608;23.362;2023-07-20T06:32:34;8.15;;;4.07;;
10126;SDS011;13080;42.608;23.362;2023-07-20T06:35:00;5.95;;;3.60;;
10126;SDS011;13080;42.608;23.362;2023-07-20T06:37:27;8.95;;;3.83;;
10126;SDS011;13080;42.608;23.362;2023-07-20T06:39:55;10.95;;;3.63;;
10126;SDS011;13080;42.608;23.362;2023-07-20T06:42:22;10.60;;;4.20;;
10126;SDS011;13080;42.608;23.362;2023-07-20T06:44:49;10.27;;;4.45;;
10126;SDS011;13080;42.608;23.362;2023-07-20T06:47:15;10.30;;;3.83;;
10126;SDS011;13080;42.608;23.362;2023-07-20T06:49:42;10.68;;;4.00;;
10126;SDS011;13080;42.608;23.362;2023-07-20T06:52:09;10.68;;;4.22;;
10126;SDS011;13080;42.608;23.362;2023-07-20T06:54:36;8.52;;;3.90;;
10126;SDS011;13080;42.608;23.362;2023-07-20T06:57:04;12.15;;;3.80;;
10126;SDS011;13080;42.608;23.362;2023-07-20T06:59:31;11.32;;;4.50;;
10126;SDS011;13080;42.608;23.362;2023-07-20T07:01:58;7.82;;;3.47;;
10126;SDS011;13080;42.608;23.362;2023-07-20T07:04:25;8.52;;;3.70;;
10126;SDS011;13080;42.608;23.362;2023-07-20T07:06:52;15.05;;;3.78;;
10126;SDS011;13080;42.608;23.362;2023-07-20T07:09:19;11.40;;;3.80;;
10126;SDS011;13080;42.608;23.362;2023-07-20T07:11:45;11.27;;;4.05;;
10126;SDS011;13080;42.608;23.362;2023-07-20T07:14:14;9.93;;;3.65;;
10126;SDS011;13080;42.608;23.362;2023-07-20T07:16:40;12.90;;;3.97;;
10126;SDS011;13080;42.608;23.362;2023-07-20T07:19:07;11.15;;;3.40;;
10126;SDS011;13080;42.608;23.362;2023-07-20T07:21:34;9.50;;;4.00;;
10126;SDS011;13080;42.608;23.362;2023-07-20T07:24:01;7.68;;;3.15;;
10126;SDS011;13080;42.608;23.362;2023-07-20T07:26:28;8.60;;;3.53;;
10126;SDS011;13080;42.608;23.362;2023-07-20T07:28:55;9.55;;;3.28;;
10126;SDS011;13080;42.608;23.362;2023-07-20T07:31:24;12.43;;;3.80;;
10126;SDS011;13080;42.608;23.362;2023-07-20T07:33:51;10.05;;;3.55;;
10126;SDS011;13080;42.608;23.362;2023-07-20T07:36:18;10.73;;;3.67;;
10126;SDS011;13080;42.608;23.362;2023-07-20T07:38:44;13.23;;;4.03;;
10126;SDS011;13080;42.608;23.362;2023-07-20T07:41:11;14.88;;;3.70;;
10126;SDS011;13080;42.608;23.362;2023-07-20T07:43:38;9.85;;;3.45;;
10126;SDS011;13080;42.608;23.362;2023-07-20T07:46:04;10.60;;;3.50;;
10126;SDS011;13080;42.608;23.362;2023-07-20T07:48:33;13.52;;;3.13;;
10126;SDS011;13080;42.608;23.362;2023-07-20T07:50:59;9.45;;;3.58;;
10126;SDS011;13080;42.608;23.362;2023-07-20T07:53:26;8.20;;;3.20;;
10126;SDS011;13080;42.608;23.362;2023-07-20T07:55:54;8.43;;;3.70;;
10126;SDS011;13080;42.608;23.362;2023-07-20T07:58:20;15.88;;;4.60;;
10126;SDS011;13080;42.608;23.362;2023-07-20T08:00:47;16.70;;;3.92;;
10126;SDS011;13080;42.608;23.362;2023-07-20T08:03:14;12.90;;;3.83;;
10126;SDS011;13080;42.608;23.362;2023-07-20T08:05:42;10.98;;;4.45;;
10126;SDS011;13080;42.608;23.362;2023-07-20T08:08:09;9.20;;;3.97;;
10126;SDS011;13080;42.608;23.362;2023-07-20T08:10:35;17.52;;;4.75;;
10126;SDS011;13080;42.608;23.362;2023-07-20T08:13:02;9.65;;;4.57;;
10126;SDS011;13080;42.608;23.362;2023-07-20T08:15:29;10.32;;;3.35;;
10126;SDS011;13080;42.608;23.362;2023-07-20T08:17:55;9.90;;;4.47;;
10126;SDS011;13080;42.608;23.362;2023-07-20T08:20:22;16.33;;;4.65;;
10126;SDS011;13080;42.608;23.362;2023-07-20T08:22:54;15.48;;;4.53;;
10126;SDS011;13080;42.608;23.362;2023-07-20T08:25:21;12.60;;;4.57;;
10126;SDS011;13080;42.608;23.362;2023-07-20T08:27:48;12.85;;;5.25;;
10126;SDS011;13080;42.608;23.362;2023-07-20T08:30:14;11.68;;;5.18;;
10126;SDS011;13080;42.608;23.362;2023-07-20T08:32:41;11.88;;;4.57;;
10126;SDS011;13080;42.608;23.362;2023-07-20T08:35:08;11.82;;;3.85;;
10126;SDS011;13080;42.608;23.362;2023-07-20T08:37:35;9.55;;;3.08;;
10126;SDS011;13080;42.608;23.362;2023-07-20T08:40:03;8.18;;;3.40;;
10126;SDS011;13080;42.608;23.362;2023-07-20T08:42:33;9.88;;;2.67;;
10126;SDS011;13080;42.608;23.362;2023-07-20T08:45:01;9.27;;;2.95;;
10126;SDS011;13080;42.608;23.362;2023-07-20T08:47:32;6.45;;;2.60;;
10126;SDS011;13080;42.608;23.362;2023-07-20T08:49:59;6.95;;;3.83;;
10126;SDS011;13080;42.608;23.362;2023-07-20T08:52:31;11.05;;;3.05;;
10126;SDS011;13080;42.608;23.362;2023-07-20T08:55:00;7.53;;;2.30;;
10126;SDS011;13080;42.608;23.362;2023-07-20T08:57:30;7.55;;;2.65;;
10126;SDS011;13080;42.608;23.362;2023-07-20T08:59:59;7.75;;;2.85;;
10126;SDS011;13080;42.608;23.362;2023-07-20T09:02:29;7.72;;;2.53;;
10126;SDS011;13080;42.608;23.362;2023-07-20T09:05:00;5.80;;;2.17;;
10126;SDS011;13080;42.608;23.362;2023-07-20T09:07:27;5.63;;;2.25;;
10126;SDS011;13080;42.608;23.362;2023-07-20T09:09:56;11.40;;;2.67;;
10126;SDS011;13080;42.608;23.362;2023-07-20T09:12:23;5.68;;;2.45;;
10126;SDS011;13080;42.608;23.362;2023-07-20T09:14:51;6.57;;;2.22;;
10126;SDS011;13080;42.608;23.362;2023-07-20T09:17:18;10.05;;;2.25;;
10126;SDS011;13080;42.608;23.362;2023-07-20T09:19:45;6.22;;;2.67;;
10126;SDS011;13080;42.608;23.362;2023-07-20T09:22:13;9.60;;;2.28;;
10126;SDS011;13080;42.608;23.362;2023-07-20T09:24:40;6.88;;;2.00;;
10126;SDS011;13080;42.608;23.362;2023-07-20T09:27:07;7.38;;;2.22;;
10126;SDS011;13080;42.608;23.362;2023-07-20T09:29:39;11.10;;;2.42;;
10126;SDS011;13080;42.608;23.362;2023-07-20T09:32:17;4.15;;;1.98;;
10126;SDS011;13080;42.608;23.362;2023-07-20T09:34:47;4.90;;;2.13;;
10126;SDS011;13080;42.608;23.362;2023-07-20T09:37:19;8.98;;;2.17;;
10126;SDS011;13080;42.608;23.362;2023-07-20T09:39:47;7.15;;;1.98;;
10126;SDS011;13080;42.608;23.362;2023-07-20T09:42:14;8.15;;;2.25;;
10126;SDS011;13080;42.608;23.362;2023-07-20T09:44:43;8.98;;;2.47;;
10126;SDS011;13080;42.608;23.362;2023-07-20T09:47:10;6.63;;;2.33;;
10126;SDS011;13080;42.608;23.362;2023-07-20T09:49:40;8.05;;;2.30;;
10126;SDS011;13080;42.608;23.362;2023-07-20T09:52:08;8.65;;;2.70;;
10126;SDS011;13080;42.608;23.362;2023-07-20T09:54:35;9.20;;;2.78;;
10126;SDS011;13080;42.608;23.362;2023-07-20T09:57:04;10.85;;;2.33;;
10126;SDS011;13080;42.608;23.362;2023-07-20T09:59:33;10.30;;;2.78;;
10126;SDS011;13080;42.608;23.362;2023-07-20T10:02:01;10.30;;;2.35;;
10126;SDS011;13080;42.608;23.362;2023-07-20T10:04:31;6.80;;;1.98;;
10126;SDS011;13080;42.608;23.362;2023-07-20T10:07:05;7.13;;;2.25;;
10126;SDS011;13080;42.608;23.362;2023-07-20T10:09:37;6.78;;;2.33;;
10126;SDS011;13080;42.608;23.362;2023-07-20T10:12:07;8.77;;;2.70;;
10126;SDS011;13080;42.608;23.362;2023-07-20T10:14:35;7.65;;;2.70;;
10126;SDS011;13080;42.608;23.362;2023-07-20T10:17:07;6.32;;;2.10;;
10126;SDS011;13080;42.608;23.362;2023-07-20T10:19:40;9.90;;;2.83;;
10126;SDS011;13080;42.608;23.362;2023-07-20T10:22:13;6.82;;;2.45;;
10126;SDS011;13080;42.608;23.362;2023-07-20T10:24:44;7.13;;;2.50;;
10126;SDS011;13080;42.608;23.362;2023-07-20T10:27:12;5.20;;;2.20;;
10126;SDS011;13080;42.608;23.362;2023-07-20T10:29:39;5.20;;;1.92;;
10126;SDS011;13080;42.608;23.362;2023-07-20T10:32:07;8.07;;;2.28;;
10126;SDS011;13080;42.608;23.362;2023-07-20T10:34:35;8.60;;;2.10;;
10126;SDS011;13080;42.608;23.362;2023-07-20T10:37:02;12.90;;;2.00;;
10126;SDS011;13080;42.608;23.362;2023-07-20T10:39:31;6.10;;;2.60;;
10126;SDS011;13080;42.608;23.362;2023-07-20T10:42:02;7.97;;;2.00;;
10126;SDS011;13080;42.608;23.362;2023-07-20T10:44:30;11.07;;;2.55;;
10126;SDS011;13080;42.608;23.362;2023-07-20T10:46:59;6.85;;;2.15;;
10126;SDS011;13080;42.608;23.362;2023-07-20T10:49:27;9.73;;;1.80;;
10126;SDS011;13080;42.608;23.362;2023-07-20T10:51:57;5.82;;;1.90;;
10126;SDS011;13080;42.608;23.362;2023-07-20T10:57:28;7.10;;;2.38;;
10126;SDS011;13080;42.608;23.362;2023-07-20T11:00:09;10.63;;;2.85;;
10126;SDS011;13080;42.608;23.362;2023-07-20T11:02:46;5.38;;;2.08;;
10126;SDS011;13080;42.608;23.362;2023-07-20T11:05:33;6.35;;;2.58;;
10126;SDS011;13080;42.608;23.362;2023-07-20T11:08:05;7.88;;;2.55;;
10126;SDS011;13080;42.608;23.362;2023-07-20T11:10:36;8.73;;;2.92;;
10126;SDS011;13080;42.608;23.362;2023-07-20T11:13:16;10.93;;;2.70;;
10126;SDS011;13080;42.608;23.362;2023-07-20T11:15:46;9.57;;;2.83;;
10126;SDS011;13080;42.608;23.362;2023-07-20T11:18:13;9.63;;;2.58;;
10126;SDS011;13080;42.608;23.362;2023-07-20T11:20:40;6.88;;;2.05;;
10126;SDS011;13080;42.608;23.362;2023-07-20T11:23:08;11.27;;;2.85;;
10126;SDS011;13080;42.608;23.362;2023-07-20T11:25:40;12.35;;;2.50;;
10126;SDS011;13080;42.608;23.362;2023-07-20T11:28:07;9.38;;;2.50;;
10126;SDS011;13080;42.608;23.362;2023-07-20T11:30:36;9.13;;;2.90;;
10126;SDS011;13080;42.608;23.362;2023-07-20T11:33:03;5.93;;;2.90;;
10126;SDS011;13080;42.608;23.362;2023-07-20T11:35:30;9.13;;;3.75;;
10126;SDS011;13080;42.608;23.362;2023-07-20T11:37:57;8.32;;;3.45;;
10126;SDS011;13080;42.608;23.362;2023-07-20T11:40:23;9.23;;;3.53;;
10126;SDS011;13080;42.608;23.362;2023-07-20T11:42:52;8.07;;;3.67;;
10126;SDS011;13080;42.608;23.362;2023-07-20T11:45:19;8.77;;;3.55;;
10126;SDS011;13080;42.608;23.362;2023-07-20T11:47:46;10.45;;;3.13;;
10126;SDS011;13080;42.608;23.362;2023-07-20T11:50:13;9.93;;;3.60;;
10126;SDS011;13080;42.608;23.362;2023-07-20T11:52:41;11.43;;;3.90;;
10126;SDS011;13080;42.608;23.362;2023-07-20T11:55:08;7.97;;;4.20;;
10126;SDS011;13080;42.608;23.362;2023-07-20T11:57:36;12.43;;;4.13;;
10126;SDS011;13080;42.608;23.362;2023-07-20T12:00:05;12.52;;;3.85;;
10126;SDS011;13080;42.608;23.362;2023-07-20T12:02:37;8.43;;;3.40;;
10126;SDS011;13080;42.608;23.362;2023-07-20T12:05:05;7.38;;;3.40;;
10126;SDS011;13080;42.608;23.362;2023-07-20T12:07:35;12.05;;;4.78;;
10126;SDS011;13080;42.608;23.362;2023-07-20T12:10:04;13.05;;;4.45;;
10126;SDS011;13080;42.608;23.362;2023-07-20T12:12:31;8.20;;;4.13;;
10126;SDS011;13080;42.608;23.362;2023-07-20T12:15:13;9.57;;;4.20;;
10126;SDS011;13080;42.608;23.362;2023-07-20T12:17:41;8.40;;;4.35;;
10126;SDS011;13080;42.608;23.362;2023-07-20T12:20:09;8.40;;;4.28;;
10126;SDS011;13080;42.608;23.362;2023-07-20T12:22:40;11.73;;;4.25;;
10126;SDS011;13080;42.608;23.362;2023-07-20T12:25:07;9.60;;;4.10;;
10126;SDS011;13080;42.608;23.362;2023-07-20T12:27:35;6.75;;;4.13;;
10126;SDS011;13080;42.608;23.362;2023-07-20T12:30:03;8.40;;;4.10;;
10126;SDS011;13080;42.608;23.362;2023-07-20T12:32:32;9.23;;;4.15;;
10126;SDS011;13080;42.608;23.362;2023-07-20T12:34:59;10.32;;;3.50;;
10126;SDS011;13080;42.608;23.362;2023-07-20T12:37:26;10.27;;;3.78;;
10126;SDS011;13080;42.608;23.362;2023-07-20T12:39:53;7.70;;;3.33;;
10126;SDS011;13080;42.608;23.362;2023-07-20T12:42:19;7.97;;;3.08;;
10126;SDS011;13080;42.608;23.362;2023-07-20T12:44:48;8.50;;;3.08;;
10126;SDS011;13080;42.608;23.362;2023-07-20T12:47:16;7.40;;;2.92;;
10126;SDS011;13080;42.608;23.362;2023-07-20T12:49:44;6.07;;;2.65;;
10126;SDS011;13080;42.608;23.362;2023-07-20T12:52:11;9.40;;;3.47;;
10126;SDS011;13080;42.608;23.362;2023-07-20T12:54:38;9.55;;;3.20;;
10126;SDS011;13080;42.608;23.362;2023-07-20T12:57:05;9.52;;;2.92;;
10126;SDS011;13080;42.608;23.362;2023-07-20T12:59:32;9.57;;;3.30;;
10126;SDS011;13080;42.608;23.362;2023-07-20T13:01:59;7.80;;;2.75;;
10126;SDS011;13080;42.608;23.362;2023-07-20T13:04:26;12.10;;;2.80;;
10126;SDS011;13080;42.608;23.362;2023-07-20T13:06:54;8.43;;;2.97;;
10126;SDS011;13080;42.608;23.362;2023-07-20T13:09:24;8.38;;;2.85;;
10126;SDS011;13080;42.608;23.362;2023-07-20T13:11:51;8.68;;;3.08;;
10126;SDS011;13080;42.608;23.362;2023-07-20T13:14:18;7.72;;;2.33;;
10126;SDS011;13080;42.608;23.362;2023-07-20T13:16:45;8.27;;;2.67;;
10126;SDS011;13080;42.608;23.362;2023-07-20T13:19:11;7.15;;;2.85;;
10126;SDS011;13080;42.608;23.362;2023-07-20T13:21:38;8.98;;;2.88;;
10126;SDS011;13080;42.608;23.362;2023-07-20T13:24:06;6.43;;;3.03;;
10126;SDS011;13080;42.608;23.362;2023-07-20T13:26:33;8.63;;;2.60;;
10126;SDS011;13080;42.608;23.362;2023-07-20T13:29:00;8.93;;;2.50;;
10126;SDS011;13080;42.608;23.362;2023-07-20T13:31:27;4.18;;;2.40;;
10126;SDS011;13080;42.608;23.362;2023-07-20T13:33:54;6.95;;;2.42;;
10126;SDS011;13080;42.608;23.362;2023-07-20T13:36:21;8.25;;;3.08;;
10126;SDS011;13080;42.608;23.362;2023-07-20T13:38:48;7.35;;;2.67;;
10126;SDS011;13080;42.608;23.362;2023-07-20T13:41:19;7.22;;;2.17;;
10126;SDS011;13080;42.608;23.362;2023-07-20T13:43:46;10.35;;;2.30;;
10126;SDS011;13080;42.608;23.362;2023-07-20T13:46:12;10.65;;;2.65;;
10126;SDS011;13080;42.608;23.362;2023-07-20T13:48:39;9.38;;;2.70;;
10126;SDS011;13080;42.608;23.362;2023-07-20T13:51:06;5.68;;;2.10;;
10126;SDS011;13080;42.608;23.362;2023-07-20T13:53:33;8.02;;;3.30;;
10126;SDS011;13080;42.608;23.362;2023-07-20T13:55:59;7.63;;;2.80;;
10126;SDS011;13080;42.608;23.362;2023-07-20T13:58:27;9.57;;;3.03;;
10126;SDS011;13080;42.608;23.362;2023-07-20T14:00:54;5.18;;;2.35;;
10126;SDS011;13080;42.608;23.362;2023-07-20T14:03:21;7.38;;;3.25;;
10126;SDS011;13080;42.608;23.362;2023-07-20T14:05:48;5.57;;;2.78;;
10126;SDS011;13080;42.608;23.362;2023-07-20T14:08:14;7.25;;;2.38;;
10126;SDS011;13080;42.608;23.362;2023-07-20T14:10:41;10.13;;;2.50;;
10126;SDS011;13080;42.608;23.362;2023-07-20T14:13:08;6.15;;;2.40;;
10126;SDS011;13080;42.608;23.362;2023-07-20T14:15:36;11.30;;;2.38;;
10126;SDS011;13080;42.608;23.362;2023-07-20T14:18:03;9.60;;;2.60;;
10126;SDS011;13080;42.608;23.362;2023-07-20T14:20:30;7.72;;;2.30;;
10126;SDS011;13080;42.608;23.362;2023-07-20T14:22:57;7.38;;;2.22;;
10126;SDS011;13080;42.608;23.362;2023-07-20T14:25:23;5.82;;;2.25;;
10126;SDS011;13080;42.608;23.362;2023-07-20T14:27:50;5.72;;;2.30;;
10126;SDS011;13080;42.608;23.362;2023-07-20T14:30:18;4.95;;;2.25;;
10126;SDS011;13080;42.608;23.362;2023-07-20T14:32:46;5.93;;;2.13;;
10126;SDS011;13080;42.608;23.362;2023-07-20T14:35:13;10.52;;;4.70;;
10126;SDS011;13080;42.608;23.362;2023-07-20T14:37:40;11.90;;;3.30;;
10126;SDS011;13080;42.608;23.362;2023-07-20T14:40:07;8.27;;;2.28;;
10126;SDS011;13080;42.608;23.362;2023-07-20T14:42:35;7.45;;;1.70;;
10126;SDS011;13080;42.608;23.362;2023-07-20T14:45:01;6.45;;;2.08;;